메인 페이지
METAR-TAF:

METAR-TAF

공항 :

나타우, 히우그란지두노르치, 브라질

위도: 05-46-05S, 경도: 035-22-34W, 고도: 88m

현재 날씨관측

예보는 1 시간 4분 전, 14:00시(UTC)에 발표되었습니다.
9kt남남동풍과 남서풍을 오가는
온도 27°C
습도 74%
기압 1018 hPa
시정 10km 이상
고도 2000ft 상공 구름 많음
고도 8000ft 상공 구름 많음

METAR: SBSG 191400Z 18009KT 150V230 9999 BKN020 BKN080 27/22 Q1018

시각: 12:04 (15:04 UTC)

예보

예보는 5 시간 36분 전, 09:28시(UTC)에 발표되었습니다.
예보 대상 시간: 19일 12시부터 20일 12시까지 (UTC)
서남서7kt
시정 10km 이상
고도 2000ft 상공 구름 보통
확률 30%
19일 12시부터 19일 13시까지 (UTC)
시정: 5000m
고도 500ft 상공 구름 보통
고도 1200ft 상공 구름 많음
전환 중
19일 13시부터 19일 14시까지 (UTC)
7kt
전환 중
19일 16시부터 19일 18시까지 (UTC)
남남동17kt
전환 중
19일 21시부터 19일 23시까지 (UTC)
7kt
전환 중
20일 01시부터 20일 03시까지 (UTC)
남서5kt

TAF: SBSG 190928Z 1912/2012 25007KT 9999 SCT020 TX29/1916Z TN22/2008Z PROB30 1912/1913 5000 RA SCT005 BKN012 BECMG 1913/1914 19007KT BECMG 1916/1918 15017KT BECMG 1921/1923 17007KT BECMG 2001/2003 23005KT RMK PHQ

4,000개 이상의 공항 관측 자료 및 예보 (METAR 및 TAF 보고).

지도상에서 검색 가능한 기상관측소가 노란 점과 빨간 점으로 표시되어 있습니다.

기상관측소 명을 보려면 표시 위로 마우스를 이동하세요.

날씨 관측과 예보를 보려면 클릭하세요.

지도 변경 : 확대하려면 엑스 표시가 있는 녹색 버튼, 축소하려면 빼기 표시가 있는 녹색 버튼, 다음 페이지의 지도를 보려면 녹색 화살표를 클릭하세요.


METAR-TAF: